createdAt,value
2018-12-09T00:01:09.079Z,7.70
2018-12-09T00:03:40.110Z,7.70
2018-12-09T00:06:11.153Z,7.70
2018-12-09T00:08:45.051Z,7.60
2018-12-09T00:11:14.310Z,7.70
2018-12-09T00:13:43.260Z,7.60
2018-12-09T00:16:12.297Z,7.60
2018-12-09T00:18:41.299Z,7.60
2018-12-09T00:21:10.495Z,7.60
2018-12-09T00:23:39.445Z,7.50
2018-12-09T00:26:10.475Z,7.50
2018-12-09T00:28:39.433Z,7.50
2018-12-09T00:31:09.356Z,7.50
2018-12-09T00:33:38.701Z,7.50
2018-12-09T00:36:07.729Z,7.50
2018-12-09T00:38:36.677Z,7.60
2018-12-09T00:41:05.974Z,7.50
2018-12-09T00:43:34.912Z,7.50
2018-12-09T00:46:03.856Z,7.50
2018-12-09T00:48:32.835Z,7.50
2018-12-09T00:51:01.775Z,7.40
2018-12-09T00:53:30.716Z,7.40
2018-12-09T00:55:59.701Z,7.40
2018-12-09T00:58:28.641Z,7.40
2018-12-09T01:00:57.594Z,7.40
2018-12-09T01:03:26.653Z,7.40
2018-12-09T01:05:55.596Z,7.40
2018-12-09T01:08:24.540Z,7.40
2018-12-09T01:10:53.605Z,7.40
2018-12-09T01:13:22.548Z,7.40
2018-12-09T01:15:51.513Z,7.40
2018-12-09T01:18:20.733Z,7.40
2018-12-09T01:20:49.674Z,7.40
2018-12-09T01:23:18.634Z,7.40
2018-12-09T01:25:47.676Z,7.40
2018-12-09T01:28:16.749Z,7.50
2018-12-09T01:30:45.693Z,7.50
2018-12-09T01:33:14.769Z,7.50
2018-12-09T01:35:43.709Z,7.50
2018-12-09T01:38:12.645Z,7.50
2018-12-09T01:40:47.193Z,7.50
2018-12-09T01:43:16.125Z,7.60
2018-12-09T01:45:45.166Z,7.50
2018-12-09T01:48:14.538Z,7.60
2018-12-09T01:50:43.665Z,7.60
2018-12-09T01:53:24.779Z,7.60
2018-12-09T01:55:53.713Z,7.60
2018-12-09T01:58:22.761Z,7.60
2018-12-09T02:00:51.829Z,7.70
2018-12-09T02:03:20.865Z,7.70
2018-12-09T02:05:49.793Z,7.60
2018-12-09T02:08:18.793Z,7.60
2018-12-09T02:10:47.737Z,7.70
2018-12-09T02:13:16.679Z,7.70
2018-12-09T02:15:45.741Z,7.70
2018-12-09T02:18:14.687Z,7.70
2018-12-09T02:20:43.628Z,7.70
2018-12-09T02:23:13.037Z,7.70
2018-12-09T02:25:41.977Z,7.80
2018-12-09T02:28:11.036Z,7.80
2018-12-09T02:30:40.073Z,7.80
2018-12-09T02:33:09.010Z,7.80
2018-12-09T02:35:45.441Z,7.80
2018-12-09T02:38:14.474Z,7.90
2018-12-09T02:40:43.713Z,7.90
2018-12-09T02:43:12.951Z,7.90
2018-12-09T02:45:41.894Z,7.90
2018-12-09T02:48:10.839Z,7.90
2018-12-09T02:50:40.578Z,8.00
2018-12-09T02:53:09.913Z,7.90
2018-12-09T02:55:38.858Z,7.90
2018-12-09T02:58:07.898Z,7.90
2018-12-09T03:00:36.840Z,7.90
2018-12-09T03:03:05.779Z,7.90
2018-12-09T03:05:35.177Z,7.90
2018-12-09T03:08:04.109Z,7.90
2018-12-09T03:10:33.050Z,7.90
2018-12-09T03:13:02.100Z,7.90
2018-12-09T03:15:31.142Z,8.00
2018-12-09T03:18:00.082Z,8.00
2018-12-09T03:20:29.153Z,8.00
2018-12-09T03:22:58.105Z,8.00
2018-12-09T03:25:27.054Z,8.10
2018-12-09T03:27:56.041Z,8.00
2018-12-09T03:30:24.989Z,8.10
2018-12-09T03:32:53.930Z,8.10
2018-12-09T03:35:23.899Z,8.10
2018-12-09T03:37:53.252Z,8.10
2018-12-09T03:40:22.193Z,8.20
2018-12-09T03:42:51.200Z,8.20
2018-12-09T03:45:20.145Z,8.30
2018-12-09T03:47:50.273Z,8.30
2018-12-09T03:50:19.245Z,8.30
2018-12-09T03:52:49.369Z,8.30
2018-12-09T03:55:18.335Z,8.30
2018-12-09T03:57:47.282Z,8.40
2018-12-09T04:00:16.605Z,8.30
2018-12-09T04:02:45.641Z,8.40
2018-12-09T04:05:14.696Z,8.40
2018-12-09T04:07:43.719Z,8.30
2018-12-09T04:10:12.661Z,8.40
2018-12-09T04:12:41.597Z,8.40
2018-12-09T04:15:10.650Z,8.30
2018-12-09T04:17:39.590Z,8.30
2018-12-09T04:20:08.717Z,8.40
2018-12-09T04:22:38.237Z,8.40
2018-12-09T04:25:07.378Z,8.40
2018-12-09T04:27:36.418Z,8.40
2018-12-09T04:30:06.344Z,8.40
2018-12-09T04:32:35.300Z,8.40
2018-12-09T04:35:04.278Z,8.40
2018-12-09T04:37:33.245Z,8.40
2018-12-09T04:40:02.172Z,8.40
2018-12-09T04:42:31.217Z,8.40
2018-12-09T04:45:00.526Z,8.40
2018-12-09T04:47:29.493Z,8.40
2018-12-09T04:49:58.445Z,8.40
2018-12-09T04:52:27.805Z,8.40
2018-12-09T04:54:56.748Z,8.40
2018-12-09T04:57:25.709Z,8.40
2018-12-09T05:00:04.869Z,8.40
2018-12-09T05:02:33.828Z,8.40
2018-12-09T05:05:02.768Z,8.40
2018-12-09T05:07:31.823Z,8.50
2018-12-09T05:10:00.765Z,8.40
2018-12-09T05:12:29.717Z,8.40
2018-12-09T05:14:58.794Z,8.40
2018-12-09T05:17:28.061Z,8.40
2018-12-09T05:19:57.024Z,8.40
2018-12-09T05:22:26.077Z,8.50
2018-12-09T05:24:55.025Z,8.50
2018-12-09T05:27:23.977Z,8.40
2018-12-09T05:29:53.029Z,8.50
2018-12-09T05:32:21.977Z,8.50
2018-12-09T05:34:50.918Z,8.50
2018-12-09T05:37:22.506Z,8.50
2018-12-09T05:39:51.691Z,8.50
2018-12-09T05:42:20.730Z,8.50
2018-12-09T05:44:50.632Z,8.50
2018-12-09T05:47:19.593Z,8.50
2018-12-09T05:49:48.533Z,8.40
2018-12-09T05:52:18.099Z,8.40
2018-12-09T05:54:47.137Z,8.40
2018-12-09T05:57:16.081Z,8.40
2018-12-09T05:59:45.090Z,8.40
2018-12-09T06:02:25.918Z,8.40
2018-12-09T06:04:55.593Z,8.40
2018-12-09T06:07:24.565Z,8.30
2018-12-09T06:09:53.605Z,8.40
2018-12-09T06:12:22.931Z,8.40
2018-12-09T06:14:52.322Z,8.40
2018-12-09T06:17:21.265Z,8.40
2018-12-09T06:19:50.682Z,8.40
2018-12-09T06:22:19.633Z,8.30
2018-12-09T06:24:48.570Z,8.30
2018-12-09T06:27:18.253Z,8.30
2018-12-09T06:29:47.197Z,8.20
2018-12-09T06:32:17.092Z,8.20
2018-12-09T06:34:46.581Z,8.20
2018-12-09T06:37:15.889Z,8.20
2018-12-09T06:39:44.841Z,8.20
2018-12-09T06:42:13.897Z,8.20
2018-12-09T06:44:42.843Z,8.10
2018-12-09T06:47:11.807Z,8.10
2018-12-09T06:49:40.889Z,8.10
2018-12-09T06:52:10.826Z,8.10
2018-12-09T06:54:40.757Z,8.10
2018-12-09T06:57:10.161Z,8.10
2018-12-09T06:59:39.106Z,8.10
2018-12-09T07:02:08.188Z,8.10
2018-12-09T07:04:37.140Z,8.00
2018-12-09T07:07:06.077Z,8.00
2018-12-09T07:09:35.598Z,8.00
2018-12-09T07:12:04.564Z,8.00
2018-12-09T07:14:34.446Z,7.90
2018-12-09T07:17:03.613Z,7.90
2018-12-09T07:19:33.457Z,7.80
2018-12-09T07:22:02.393Z,7.80
2018-12-09T07:24:32.123Z,7.80
2018-12-09T07:27:01.069Z,7.80
2018-12-09T07:29:30.033Z,7.80
2018-12-09T07:31:59.025Z,7.70
2018-12-09T07:34:27.972Z,7.70
2018-12-09T07:36:56.893Z,7.80
2018-12-09T07:39:26.830Z,7.80
2018-12-09T07:41:56.525Z,7.80
2018-12-09T07:44:26.026Z,7.80
2018-12-09T07:46:55.392Z,7.80
2018-12-09T07:49:24.343Z,7.80
2018-12-09T07:51:53.320Z,7.80
2018-12-09T07:54:22.272Z,7.90
2018-12-09T07:56:51.207Z,7.90
2018-12-09T07:59:20.493Z,7.90
2018-12-09T08:01:49.428Z,8.00
2018-12-09T08:04:19.309Z,7.90
2018-12-09T08:06:49.428Z,8.00
2018-12-09T08:09:18.408Z,7.90
2018-12-09T08:11:47.457Z,7.90
2018-12-09T08:14:16.431Z,7.90
2018-12-09T08:16:46.241Z,7.90
2018-12-09T08:19:15.206Z,7.90
2018-12-09T08:21:44.203Z,7.90
2018-12-09T08:24:13.141Z,7.90
2018-12-09T08:26:42.092Z,7.90
2018-12-09T08:29:11.172Z,7.90
2018-12-09T08:31:40.218Z,7.90
2018-12-09T08:34:09.154Z,8.00
2018-12-09T08:36:38.140Z,7.90
2018-12-09T08:39:07.111Z,8.00
2018-12-09T08:41:37.013Z,8.00
2018-12-09T08:44:06.001Z,8.00
2018-12-09T08:46:35.906Z,8.00
2018-12-09T08:49:04.837Z,8.00
2018-12-09T08:51:34.005Z,8.10
2018-12-09T08:54:02.969Z,8.00
2018-12-09T08:56:31.911Z,8.10
2018-12-09T08:59:00.959Z,8.00
2018-12-09T09:01:29.893Z,8.00
2018-12-09T09:03:59.865Z,8.10
2018-12-09T09:06:28.848Z,8.10
2018-12-09T09:08:58.201Z,8.10
2018-12-09T09:11:27.573Z,8.10
2018-12-09T09:13:56.625Z,8.20
2018-12-09T09:16:25.565Z,8.20
2018-12-09T09:18:54.908Z,8.20
2018-12-09T09:21:23.983Z,8.30
2018-12-09T09:23:53.025Z,8.30
2018-12-09T09:26:21.961Z,8.40
2018-12-09T09:28:51.013Z,8.40
2018-12-09T09:31:19.949Z,8.40
2018-12-09T09:33:48.893Z,8.50
2018-12-09T09:36:17.866Z,8.50
2018-12-09T09:38:46.805Z,8.60
2018-12-09T09:41:15.833Z,8.60
2018-12-09T09:43:44.835Z,8.50
2018-12-09T09:46:13.777Z,8.60
2018-12-09T09:48:42.720Z,8.50
2018-12-09T09:51:11.694Z,8.60
2018-12-09T09:53:40.621Z,8.60
2018-12-09T09:56:10.002Z,8.60
2018-12-09T09:58:38.993Z,8.60
2018-12-09T10:01:08.397Z,8.60
2018-12-09T10:03:37.355Z,8.60
2018-12-09T10:06:06.434Z,8.60
2018-12-09T10:08:35.373Z,8.50
2018-12-09T10:11:04.317Z,8.50
2018-12-09T10:13:33.381Z,8.50
2018-12-09T10:16:02.412Z,8.50
2018-12-09T10:18:31.366Z,8.60
2018-12-09T10:21:00.589Z,8.60
2018-12-09T10:23:30.178Z,8.60
2018-12-09T10:25:59.122Z,8.60
2018-12-09T10:28:28.090Z,8.70
2018-12-09T10:30:57.357Z,8.60
2018-12-09T10:33:26.421Z,8.70
2018-12-09T10:35:55.361Z,8.60
2018-12-09T10:38:24.295Z,8.60
2018-12-09T10:40:53.257Z,8.60
2018-12-09T10:43:23.137Z,8.60
2018-12-09T10:45:52.093Z,8.60
2018-12-09T10:48:21.029Z,8.60
2018-12-09T10:50:51.149Z,8.70
2018-12-09T10:53:20.077Z,8.60
2018-12-09T10:55:49.025Z,8.70
2018-12-09T10:58:18.876Z,8.60
2018-12-09T11:00:51.817Z,8.60
2018-12-09T11:03:20.832Z,8.60
2018-12-09T11:05:51.573Z,8.60
2018-12-09T11:08:21.432Z,8.60
2018-12-09T11:10:50.373Z,8.60
2018-12-09T11:13:19.309Z,8.60
2018-12-09T11:15:48.497Z,8.60
2018-12-09T11:18:17.469Z,8.60
2018-12-09T11:20:47.401Z,8.60
2018-12-09T11:23:16.369Z,8.60
2018-12-09T11:25:45.305Z,8.50
2018-12-09T11:28:14.757Z,8.60
2018-12-09T11:30:44.533Z,8.60
2018-12-09T11:33:13.624Z,8.70
2018-12-09T11:35:42.558Z,8.70
2018-12-09T11:38:11.997Z,8.70
2018-12-09T11:40:41.074Z,8.70
2018-12-09T11:43:10.877Z,8.70
2018-12-09T11:45:40.045Z,8.70
2018-12-09T11:48:11.072Z,8.70
2018-12-09T11:50:40.125Z,8.70
2018-12-09T11:53:10.253Z,8.70
2018-12-09T11:55:39.190Z,8.70
2018-12-09T11:58:08.934Z,8.80
2018-12-09T12:00:37.869Z,8.80
2018-12-09T12:03:08.620Z,8.80
2018-12-09T12:05:37.553Z,8.80
2018-12-09T12:08:06.537Z,8.80
2018-12-09T12:10:35.483Z,8.80
2018-12-09T12:13:05.431Z,8.80
2018-12-09T12:15:34.433Z,8.80
2018-12-09T12:18:04.173Z,8.80
2018-12-09T12:20:33.150Z,8.80
2018-12-09T12:23:02.102Z,8.90
2018-12-09T12:25:31.409Z,8.80
2018-12-09T12:28:02.215Z,8.90
2018-12-09T12:30:31.150Z,8.90
2018-12-09T12:33:00.193Z,8.80
2018-12-09T12:35:30.109Z,8.90
2018-12-09T12:37:59.049Z,8.80
2018-12-09T12:40:28.021Z,8.80
2018-12-09T12:42:57.667Z,8.90
2018-12-09T12:45:26.940Z,8.90
2018-12-09T12:47:55.885Z,9.00
2018-12-09T12:50:24.921Z,9.00
2018-12-09T12:52:54.093Z,9.00
2018-12-09T12:55:23.130Z,9.00
2018-12-09T12:57:52.085Z,9.00
2018-12-09T13:00:21.130Z,9.00
2018-12-09T13:02:50.181Z,9.00
2018-12-09T13:05:19.546Z,8.90
2018-12-09T13:07:48.485Z,8.90
2018-12-09T13:10:17.534Z,8.90
2018-12-09T13:12:46.969Z,8.90
2018-12-09T13:15:16.041Z,8.90
2018-12-09T13:17:45.045Z,8.90
2018-12-09T13:20:15.835Z,8.90
2018-12-09T13:22:45.310Z,8.80
2018-12-09T13:25:14.253Z,8.80
2018-12-09T13:27:43.223Z,8.80
2018-12-09T13:30:12.253Z,8.80
2018-12-09T13:32:43.142Z,8.70
2018-12-09T13:35:12.929Z,8.80
2018-12-09T13:37:41.989Z,8.80
2018-12-09T13:40:11.122Z,8.70
2018-12-09T13:42:40.978Z,8.70
2018-12-09T13:45:10.262Z,8.70
2018-12-09T13:47:39.201Z,8.80
2018-12-09T13:50:10.323Z,8.70
2018-12-09T13:52:39.294Z,8.70
2018-12-09T13:55:09.637Z,8.70
2018-12-09T13:57:38.597Z,8.70
2018-12-09T14:00:09.597Z,8.60
2018-12-09T14:02:38.542Z,8.70
2018-12-09T14:05:09.059Z,8.70
2018-12-09T14:07:38.112Z,8.70
2018-12-09T14:10:07.077Z,8.70
2018-12-09T14:12:36.034Z,8.70
2018-12-09T14:15:06.541Z,8.70
2018-12-09T14:17:35.590Z,8.70
2018-12-09T14:20:05.924Z,8.60
2018-12-09T14:22:35.725Z,8.70
2018-12-09T14:25:06.429Z,8.60
2018-12-09T14:27:36.648Z,8.60
2018-12-09T14:30:07.446Z,8.60
2018-12-09T14:32:36.408Z,8.50
2018-12-09T14:35:07.843Z,8.50
2018-12-09T14:37:40.367Z,8.50
2018-12-09T14:40:10.681Z,8.50
2018-12-09T14:42:39.706Z,8.50
2018-12-09T14:45:11.992Z,8.50
2018-12-09T14:47:41.805Z,8.50
2018-12-09T14:50:11.619Z,8.50
2018-12-09T14:52:41.030Z,8.50
2018-12-09T14:55:10.543Z,8.50
2018-12-09T14:57:39.693Z,8.50
2018-12-09T15:00:10.025Z,8.50
2018-12-09T15:02:38.961Z,8.50
2018-12-09T15:05:08.743Z,8.40
2018-12-09T15:07:38.562Z,8.40
2018-12-09T15:10:09.186Z,8.30
2018-12-09T15:12:39.161Z,8.40
2018-12-09T15:15:09.433Z,8.30
2018-12-09T15:17:38.457Z,8.30
2018-12-09T15:20:07.609Z,8.30
2018-12-09T15:22:36.563Z,8.20
2018-12-09T15:25:07.520Z,8.20
2018-12-09T15:27:36.668Z,8.20
2018-12-09T15:30:07.766Z,8.20
2018-12-09T15:32:36.737Z,8.20
2018-12-09T15:35:06.365Z,8.20
2018-12-09T15:37:37.817Z,8.20
2018-12-09T15:40:06.953Z,8.20
2018-12-09T15:42:35.892Z,8.20
2018-12-09T15:45:05.735Z,8.20
2018-12-09T15:47:34.681Z,8.20
2018-12-09T15:50:04.337Z,8.20
2018-12-09T15:52:33.277Z,8.10
2018-12-09T15:55:02.285Z,8.20
2018-12-09T15:57:31.224Z,8.10
2018-12-09T16:00:00.234Z,8.10
2018-12-09T16:02:29.209Z,8.10
2018-12-09T16:04:58.149Z,8.10
2018-12-09T16:07:27.111Z,8.10
2018-12-09T16:09:57.383Z,8.10
2018-12-09T16:12:26.780Z,8.10
2018-12-09T16:14:55.727Z,8.10
2018-12-09T16:17:24.695Z,8.10
2018-12-09T16:19:53.665Z,8.10
2018-12-09T16:22:23.544Z,8.10
2018-12-09T16:24:53.354Z,8.10
2018-12-09T16:27:22.401Z,8.00
2018-12-09T16:29:51.668Z,8.00
2018-12-09T16:32:20.606Z,8.00
2018-12-09T16:34:49.569Z,8.00
2018-12-09T16:37:19.368Z,8.00
2018-12-09T16:39:48.358Z,8.00
2018-12-09T16:42:17.310Z,8.00
2018-12-09T16:44:47.145Z,8.00
2018-12-09T16:47:16.107Z,8.00
2018-12-09T16:49:45.049Z,8.00
2018-12-09T16:52:14.596Z,8.00
2018-12-09T16:54:43.561Z,8.00
2018-12-09T16:57:14.418Z,8.00
2018-12-09T16:59:43.812Z,8.00
2018-12-09T17:02:13.755Z,8.00
2018-12-09T17:04:42.721Z,8.00
2018-12-09T17:07:12.099Z,8.00
2018-12-09T17:09:41.143Z,8.00
2018-12-09T17:12:10.620Z,8.00
2018-12-09T17:14:39.618Z,8.00
2018-12-09T17:17:08.678Z,8.00
2018-12-09T17:19:37.857Z,8.00
2018-12-09T17:22:06.953Z,8.00
2018-12-09T17:24:36.763Z,8.00
2018-12-09T17:27:05.697Z,8.00
2018-12-09T17:29:35.700Z,8.00
2018-12-09T17:32:05.767Z,8.00
2018-12-09T17:34:34.810Z,8.00
2018-12-09T17:37:03.969Z,8.00
2018-12-09T17:39:32.913Z,8.00
2018-12-09T17:42:01.874Z,8.00
2018-12-09T17:44:30.813Z,8.00
2018-12-09T17:46:59.792Z,8.00
2018-12-09T17:49:28.737Z,7.90
2018-12-09T17:51:57.691Z,7.90
2018-12-09T17:54:27.545Z,7.90
2018-12-09T17:56:56.785Z,7.90
2018-12-09T17:59:25.742Z,7.90
2018-12-09T18:01:54.684Z,7.90
2018-12-09T18:04:23.677Z,7.80
2018-12-09T18:06:52.609Z,7.80
2018-12-09T18:09:21.547Z,7.80
2018-12-09T18:11:50.493Z,7.80
2018-12-09T18:14:19.525Z,7.70
2018-12-09T18:16:48.593Z,7.80
2018-12-09T18:19:17.554Z,7.70
2018-12-09T18:21:46.522Z,7.70
2018-12-09T18:24:15.582Z,7.70
2018-12-09T18:26:44.528Z,7.70
2018-12-09T18:29:14.525Z,7.70
2018-12-09T18:31:44.407Z,7.70
2018-12-09T18:34:13.441Z,7.70
2018-12-09T18:36:42.478Z,7.70
2018-12-09T18:39:11.620Z,7.70
2018-12-09T18:41:40.869Z,7.60
2018-12-09T18:44:10.339Z,7.70
2018-12-09T18:46:39.291Z,7.70
2018-12-09T18:49:08.373Z,7.70
2018-12-09T18:51:38.334Z,7.70
2018-12-09T18:54:07.316Z,7.70
2018-12-09T18:56:36.273Z,7.70
2018-12-09T18:59:06.287Z,7.70
2018-12-09T19:01:35.280Z,7.70
2018-12-09T19:04:04.226Z,7.70
2018-12-09T19:06:33.380Z,7.70
2018-12-09T19:09:02.440Z,7.70
2018-12-09T19:11:34.304Z,7.70
2018-12-09T19:14:04.621Z,7.70
2018-12-09T19:16:33.602Z,7.60
2018-12-09T19:19:03.545Z,7.70
2018-12-09T19:21:32.529Z,7.70
2018-12-09T19:24:02.380Z,7.60
2018-12-09T19:26:32.261Z,7.70
2018-12-09T19:29:01.225Z,7.60
2018-12-09T19:31:30.195Z,7.70
2018-12-09T19:33:59.178Z,7.70
2018-12-09T19:36:28.965Z,7.70
2018-12-09T19:38:58.033Z,7.70
2018-12-09T19:41:26.972Z,7.70
2018-12-09T19:43:55.925Z,7.70
2018-12-09T19:46:25.037Z,7.70
2018-12-09T19:48:53.995Z,7.70
2018-12-09T19:51:23.183Z,7.70
2018-12-09T19:53:52.121Z,7.60
2018-12-09T19:56:21.077Z,7.70
2018-12-09T19:58:50.042Z,7.70
2018-12-09T20:01:18.991Z,7.70
2018-12-09T20:03:47.961Z,7.60
2018-12-09T20:06:17.004Z,7.60
2018-12-09T20:08:45.997Z,7.60
2018-12-09T20:11:15.381Z,7.60
2018-12-09T20:13:44.323Z,7.60
2018-12-09T20:16:13.299Z,7.60
2018-12-09T20:18:43.126Z,7.60
2018-12-09T20:21:12.408Z,7.60
2018-12-09T20:23:46.335Z,7.60
2018-12-09T20:26:15.781Z,7.60
2018-12-09T20:28:44.730Z,7.60
2018-12-09T20:31:13.689Z,7.60
2018-12-09T20:33:42.658Z,7.60
2018-12-09T20:36:11.604Z,7.60
2018-12-09T20:38:40.577Z,7.60
2018-12-09T20:41:09.526Z,7.50
2018-12-09T20:43:38.589Z,7.50
2018-12-09T20:46:07.532Z,7.50
2018-12-09T20:48:36.648Z,7.50
2018-12-09T20:51:05.610Z,7.50
2018-12-09T20:53:34.641Z,7.50
2018-12-09T20:56:03.818Z,7.50
2018-12-09T20:58:32.785Z,7.50
2018-12-09T21:01:01.785Z,7.50
2018-12-09T21:03:30.745Z,7.50
2018-12-09T21:05:59.694Z,7.50
2018-12-09T21:08:29.304Z,7.50
2018-12-09T21:10:58.609Z,7.50
2018-12-09T21:13:27.570Z,7.50
2018-12-09T21:15:56.626Z,7.40
2018-12-09T21:18:26.647Z,7.40
2018-12-09T21:20:55.748Z,7.40
2018-12-09T21:23:25.753Z,7.40
2018-12-09T21:25:55.067Z,7.40
2018-12-09T21:28:24.010Z,7.40
2018-12-09T21:30:53.612Z,7.40
2018-12-09T21:33:22.613Z,7.40
2018-12-09T21:35:51.648Z,7.40
2018-12-09T21:38:20.949Z,7.40
2018-12-09T21:40:49.899Z,7.40
2018-12-09T21:43:20.376Z,7.30
2018-12-09T21:45:49.354Z,7.30
2018-12-09T21:48:18.297Z,7.30
2018-12-09T21:50:47.265Z,7.30
2018-12-09T21:53:16.214Z,7.30
2018-12-09T21:55:46.134Z,7.30
2018-12-09T21:58:16.006Z,7.30
2018-12-09T22:00:45.081Z,7.30
2018-12-09T22:03:14.033Z,7.30
2018-12-09T22:05:43.041Z,7.30
2018-12-09T22:08:12.005Z,7.30
2018-12-09T22:10:41.838Z,7.30
2018-12-09T22:13:10.894Z,7.30
2018-12-09T22:15:39.838Z,7.30
2018-12-09T22:18:08.874Z,7.30
2018-12-09T22:20:38.786Z,7.30
2018-12-09T22:23:07.841Z,7.30
2018-12-09T22:25:36.833Z,7.30
2018-12-09T22:28:05.879Z,7.20
2018-12-09T22:30:34.930Z,7.20
2018-12-09T22:33:04.706Z,7.30
2018-12-09T22:35:33.647Z,7.30
2018-12-09T22:38:02.625Z,7.30
2018-12-09T22:40:32.591Z,7.30
2018-12-09T22:43:01.532Z,7.20
2018-12-09T22:45:30.494Z,7.30
2018-12-09T22:47:59.908Z,7.20
2018-12-09T22:50:28.966Z,7.30
2018-12-09T22:52:57.922Z,7.30
2018-12-09T22:55:26.874Z,7.30
2018-12-09T22:57:55.843Z,7.20
2018-12-09T23:00:27.797Z,7.20
2018-12-09T23:03:02.715Z,7.20
2018-12-09T23:05:32.557Z,7.30
2018-12-09T23:08:01.638Z,7.20
2018-12-09T23:10:30.582Z,7.20
2018-12-09T23:12:59.522Z,7.20
2018-12-09T23:15:28.485Z,7.20
2018-12-09T23:17:57.427Z,7.20
2018-12-09T23:20:26.485Z,7.20
2018-12-09T23:22:55.460Z,7.20
2018-12-09T23:25:26.131Z,7.20
2018-12-09T23:27:55.093Z,7.20
2018-12-09T23:30:24.132Z,7.10
2018-12-09T23:32:53.497Z,7.10
2018-12-09T23:35:22.670Z,7.10
2018-12-09T23:37:52.933Z,7.10
2018-12-09T23:40:21.881Z,7.10
2018-12-09T23:42:51.906Z,7.00
2018-12-09T23:45:20.873Z,7.10
2018-12-09T23:47:49.805Z,7.00
2018-12-09T23:50:18.765Z,6.90
2018-12-09T23:52:47.710Z,6.90
2018-12-09T23:55:16.750Z,7.00
2018-12-09T23:57:45.745Z,6.90
